createdAt,value
2022-08-29T00:00:26.959Z,72.90
2022-08-29T00:03:00.105Z,72.90
2022-08-29T00:05:31.551Z,73.00
2022-08-29T00:08:01.320Z,73.10
2022-08-29T00:10:31.914Z,73.20
2022-08-29T00:13:00.697Z,73.40
2022-08-29T00:15:30.437Z,73.80
2022-08-29T00:17:58.799Z,73.40
2022-08-29T00:20:34.644Z,74.00
2022-08-29T00:23:03.925Z,74.00
2022-08-29T00:25:33.027Z,73.90
2022-08-29T00:28:01.530Z,74.30
2022-08-29T00:30:32.489Z,74.40
2022-08-29T00:33:00.808Z,74.60
2022-08-29T00:35:32.090Z,74.70
2022-08-29T00:38:00.807Z,74.60
2022-08-29T00:40:34.555Z,75.10
2022-08-29T00:43:03.179Z,74.90
2022-08-29T00:45:33.430Z,74.70
2022-08-29T00:48:06.990Z,74.40
2022-08-29T00:50:41.105Z,74.80
2022-08-29T00:53:16.032Z,75.60
2022-08-29T00:55:50.268Z,76.20
2022-08-29T00:58:26.896Z,76.20
2022-08-29T01:00:56.824Z,76.20
2022-08-29T01:03:25.614Z,76.90
2022-08-29T01:05:54.093Z,77.10
2022-08-29T01:08:22.354Z,78.40
2022-08-29T01:11:07.829Z,78.60
2022-08-29T01:13:40.965Z,78.40
2022-08-29T01:16:14.628Z,78.50
2022-08-29T01:18:46.940Z,79.50
2022-08-29T01:21:22.849Z,79.50
2022-08-29T01:24:00.580Z,79.20
2022-08-29T01:26:31.269Z,78.20
2022-08-29T01:29:00.100Z,78.00
2022-08-29T01:31:56.644Z,77.60
2022-08-29T01:34:28.262Z,77.90
2022-08-29T01:36:59.799Z,78.90
2022-08-29T01:39:32.864Z,79.50
2022-08-29T01:42:07.585Z,79.70
2022-08-29T01:44:35.912Z,79.60
2022-08-29T01:47:06.290Z,80.30
2022-08-29T01:49:37.890Z,80.20
2022-08-29T01:52:09.319Z,80.50
2022-08-29T01:54:37.541Z,79.80
2022-08-29T01:57:10.952Z,79.60
2022-08-29T01:59:41.939Z,79.90
2022-08-29T02:02:16.665Z,80.50
2022-08-29T02:04:47.110Z,81.50
2022-08-29T02:07:20.488Z,80.90
2022-08-29T02:09:49.363Z,81.30
2022-08-29T02:12:20.664Z,81.20
2022-08-29T02:14:49.524Z,81.30
2022-08-29T02:17:17.774Z,81.10
2022-08-29T02:19:46.051Z,81.60
2022-08-29T02:22:15.285Z,81.40
2022-08-29T02:24:44.082Z,81.30
2022-08-29T02:27:12.617Z,81.20
2022-08-29T02:29:42.274Z,80.80
2022-08-29T02:32:13.111Z,81.10
2022-08-29T02:34:44.632Z,81.60
2022-08-29T02:37:16.542Z,82.00
2022-08-29T02:39:44.831Z,82.30
2022-08-29T02:42:13.007Z,82.50
2022-08-29T02:44:42.589Z,82.60
2022-08-29T02:47:10.811Z,82.40
2022-08-29T02:49:39.546Z,82.60
2022-08-29T02:52:08.592Z,82.60
2022-08-29T02:54:37.250Z,82.00
2022-08-29T02:57:05.840Z,81.70
2022-08-29T02:59:34.132Z,81.40
2022-08-29T03:02:03.804Z,80.80
2022-08-29T03:04:32.191Z,81.20
2022-08-29T03:07:00.384Z,81.90
2022-08-29T03:09:28.642Z,82.40
2022-08-29T03:11:56.878Z,82.90
2022-08-29T03:14:25.499Z,82.70
2022-08-29T03:16:54.622Z,82.80
2022-08-29T03:19:24.283Z,82.90
2022-08-29T03:21:52.518Z,82.60
2022-08-29T03:24:26.936Z,82.60
2022-08-29T03:26:56.702Z,82.40
2022-08-29T03:29:26.158Z,82.40
2022-08-29T03:31:58.234Z,82.70
2022-08-29T03:34:28.942Z,82.50
2022-08-29T03:36:57.228Z,82.30
2022-08-29T03:39:25.595Z,82.60
2022-08-29T03:41:54.211Z,82.50
2022-08-29T03:44:22.559Z,82.90
2022-08-29T03:46:50.852Z,82.10
2022-08-29T03:49:19.069Z,81.40
2022-08-29T03:51:50.033Z,81.90
2022-08-29T03:54:18.684Z,82.20
2022-08-29T03:56:47.281Z,82.60
2022-08-29T03:59:15.695Z,83.00
2022-08-29T04:01:44.316Z,82.80
2022-08-29T04:04:32.536Z,83.60
2022-08-29T04:07:02.652Z,82.60
2022-08-29T04:09:31.402Z,83.40
2022-08-29T04:12:00.200Z,83.00
2022-08-29T04:14:29.532Z,83.80
2022-08-29T04:16:58.078Z,83.70
2022-08-29T04:19:26.265Z,83.30
2022-08-29T04:21:54.757Z,83.00
2022-08-29T04:24:24.579Z,83.00
2022-08-29T04:26:52.782Z,82.70
2022-08-29T04:29:20.949Z,82.70
2022-08-29T04:31:49.117Z,82.70
2022-08-29T04:34:17.875Z,83.30
2022-08-29T04:36:47.212Z,83.60
2022-08-29T04:39:16.146Z,83.90
2022-08-29T04:41:45.872Z,84.00
2022-08-29T04:44:14.277Z,84.80
2022-08-29T04:46:42.673Z,84.80
2022-08-29T04:49:10.942Z,84.80
2022-08-29T04:51:39.225Z,84.80
2022-08-29T04:54:07.747Z,85.20
2022-08-29T04:56:38.140Z,84.70
2022-08-29T04:59:10.612Z,84.60
2022-08-29T05:01:38.822Z,84.70
2022-08-29T05:04:14.417Z,84.60
2022-08-29T05:06:43.273Z,84.60
2022-08-29T05:09:11.560Z,84.70
2022-08-29T05:11:40.200Z,84.60
2022-08-29T05:14:10.244Z,84.90
2022-08-29T05:16:38.972Z,84.70
2022-08-29T05:19:09.662Z,84.80
2022-08-29T05:21:40.853Z,84.60
2022-08-29T05:24:11.104Z,84.60
2022-08-29T05:26:43.878Z,84.80
2022-08-29T05:29:14.910Z,85.10
2022-08-29T05:31:45.446Z,84.70
2022-08-29T05:34:34.315Z,84.80
2022-08-29T05:37:03.098Z,84.60
2022-08-29T05:39:31.305Z,85.10
2022-08-29T05:41:59.884Z,85.00
2022-08-29T05:44:35.109Z,85.20
2022-08-29T05:47:04.599Z,85.00
2022-08-29T05:49:33.030Z,84.80
2022-08-29T05:52:01.396Z,84.50
2022-08-29T05:54:30.399Z,84.50
2022-08-29T05:56:58.965Z,84.30
2022-08-29T05:59:28.502Z,84.20
2022-08-29T06:01:56.859Z,84.00
2022-08-29T06:04:25.163Z,83.90
2022-08-29T06:06:53.373Z,83.90
2022-08-29T06:09:21.624Z,83.90
2022-08-29T06:11:53.219Z,83.60
2022-08-29T06:14:22.473Z,83.50
2022-08-29T06:16:52.267Z,83.30
2022-08-29T06:19:20.673Z,83.20
2022-08-29T06:21:48.917Z,83.40
2022-08-29T06:24:18.073Z,83.20
2022-08-29T06:26:46.399Z,83.00
2022-08-29T06:29:16.126Z,83.00
2022-08-29T06:31:44.525Z,82.80
2022-08-29T06:34:14.357Z,82.30
2022-08-29T06:36:42.563Z,82.20
2022-08-29T06:39:12.440Z,82.10
2022-08-29T06:41:42.153Z,82.20
2022-08-29T06:44:11.210Z,80.90
2022-08-29T06:46:43.254Z,81.10
2022-08-29T06:49:16.333Z,80.60
2022-08-29T06:51:49.311Z,80.00
2022-08-29T06:54:20.206Z,80.20
2022-08-29T06:56:48.796Z,80.30
2022-08-29T06:59:17.715Z,79.70
2022-08-29T07:01:47.193Z,79.60
2022-08-29T07:04:19.672Z,77.90
2022-08-29T07:06:50.429Z,76.80
2022-08-29T07:09:19.019Z,76.60
2022-08-29T07:11:47.201Z,76.20
2022-08-29T07:14:15.578Z,74.70
2022-08-29T07:16:43.877Z,74.50
2022-08-29T07:19:12.517Z,74.40
2022-08-29T07:21:42.078Z,72.80
2022-08-29T07:24:10.787Z,71.20
2022-08-29T07:26:44.326Z,70.40
2022-08-29T07:29:16.373Z,69.40
2022-08-29T07:31:45.022Z,67.30
2022-08-29T07:34:13.452Z,66.80
2022-08-29T07:36:43.265Z,67.00
2022-08-29T07:39:14.939Z,66.70
2022-08-29T07:41:44.619Z,65.20
2022-08-29T07:44:14.459Z,65.70
2022-08-29T07:46:43.529Z,66.60
2022-08-29T07:49:12.781Z,64.70
2022-08-29T07:51:44.654Z,64.80
2022-08-29T07:54:16.658Z,64.60
2022-08-29T07:56:45.122Z,65.30
2022-08-29T07:59:13.753Z,64.50
2022-08-29T08:01:42.313Z,64.70
2022-08-29T08:04:11.332Z,64.00
2022-08-29T08:06:43.125Z,63.80
2022-08-29T08:09:14.133Z,63.60
2022-08-29T08:11:43.268Z,63.80
2022-08-29T08:14:12.962Z,63.60
2022-08-29T08:16:44.179Z,63.30
2022-08-29T08:19:14.206Z,62.90
2022-08-29T08:21:49.620Z,63.40
2022-08-29T08:24:20.009Z,63.00
2022-08-29T08:26:48.751Z,62.90
2022-08-29T08:29:17.330Z,62.20
2022-08-29T08:31:46.843Z,63.40
2022-08-29T08:34:15.775Z,62.60
2022-08-29T08:36:46.787Z,63.10
2022-08-29T08:39:15.651Z,62.80
2022-08-29T08:41:55.038Z,62.50
2022-08-29T08:44:58.019Z,61.20
2022-08-29T08:47:29.633Z,61.30
2022-08-29T08:50:08.015Z,59.50
2022-08-29T08:52:47.235Z,58.90
2022-08-29T08:55:28.245Z,59.10
2022-08-29T08:58:09.920Z,57.70
2022-08-29T09:00:45.389Z,57.40
2022-08-29T09:03:49.496Z,58.00
2022-08-29T09:06:33.993Z,57.40
2022-08-29T09:09:14.551Z,55.40
2022-08-29T09:11:49.008Z,55.80
2022-08-29T09:14:34.119Z,54.70
2022-08-29T09:17:04.058Z,55.20
2022-08-29T09:19:33.073Z,55.30
2022-08-29T09:22:12.102Z,55.80
2022-08-29T09:24:48.964Z,56.40
2022-08-29T09:27:20.883Z,56.60
2022-08-29T09:29:51.306Z,56.80
2022-08-29T09:32:22.534Z,56.70
2022-08-29T09:37:40.211Z,56.50
2022-08-29T09:40:16.692Z,56.10
2022-08-29T09:43:02.405Z,56.30
2022-08-29T09:45:30.901Z,56.40
2022-08-29T09:48:14.264Z,56.60
2022-08-29T09:50:42.654Z,53.90
2022-08-29T09:53:23.836Z,54.60
2022-08-29T09:55:56.047Z,53.60
2022-08-29T09:58:36.259Z,52.00
2022-08-29T10:01:11.840Z,52.50
2022-08-29T10:03:44.760Z,50.90
2022-08-29T10:06:18.199Z,52.20
2022-08-29T10:09:00.629Z,51.80
2022-08-29T10:11:37.342Z,51.50
2022-08-29T10:14:12.718Z,50.10
2022-08-29T10:16:50.137Z,50.00
2022-08-29T10:19:24.359Z,49.40
2022-08-29T10:22:02.210Z,50.10
2022-08-29T10:24:55.073Z,48.30
2022-08-29T10:27:35.809Z,48.80
2022-08-29T10:30:11.794Z,49.10
2022-08-29T10:33:09.654Z,47.60
2022-08-29T10:35:42.056Z,49.30
2022-08-29T10:38:19.820Z,48.10
2022-08-29T10:40:53.291Z,47.60
2022-08-29T10:43:40.038Z,47.20
2022-08-29T10:46:28.856Z,47.70
2022-08-29T10:49:06.556Z,47.10
2022-08-29T10:51:41.653Z,47.40
2022-08-29T10:54:29.083Z,47.20
2022-08-29T10:56:57.407Z,47.50
2022-08-29T10:59:37.984Z,48.30
2022-08-29T11:02:12.753Z,48.00
2022-08-29T11:04:47.197Z,48.10
2022-08-29T11:07:20.787Z,47.20
2022-08-29T11:09:53.867Z,46.80
2022-08-29T11:12:30.872Z,46.60
2022-08-29T11:15:07.339Z,45.70
2022-08-29T11:17:41.385Z,44.50
2022-08-29T11:20:15.876Z,45.10
2022-08-29T11:22:48.659Z,46.00
2022-08-29T11:25:25.228Z,44.00
2022-08-29T11:28:05.394Z,45.20
2022-08-29T11:30:49.187Z,45.40
2022-08-29T11:33:32.980Z,44.50
2022-08-29T11:36:28.680Z,45.00
2022-08-29T11:39:30.989Z,43.40
2022-08-29T11:42:07.489Z,43.10
2022-08-29T11:44:40.026Z,42.30
2022-08-29T11:47:41.147Z,41.80
2022-08-29T11:50:23.757Z,42.00
2022-08-29T11:52:57.473Z,41.00
2022-08-29T11:55:35.771Z,40.50
2022-08-29T11:58:46.235Z,39.90
2022-08-29T12:02:00.657Z,39.40
2022-08-29T12:04:55.978Z,38.80
2022-08-29T12:07:35.468Z,39.00
2022-08-29T12:10:07.570Z,38.60
2022-08-29T12:12:47.439Z,38.70
2022-08-29T12:15:55.173Z,39.00
2022-08-29T12:18:52.158Z,38.20
2022-08-29T12:21:50.677Z,39.00
2022-08-29T12:24:39.694Z,39.00
2022-08-29T12:27:25.308Z,39.70
2022-08-29T12:29:55.123Z,41.00
2022-08-29T12:32:45.677Z,40.00
2022-08-29T12:35:34.651Z,40.20
2022-08-29T12:38:23.328Z,39.80
2022-08-29T12:41:20.959Z,40.40
2022-08-29T12:43:55.700Z,39.80
2022-08-29T12:46:29.762Z,41.20
2022-08-29T12:49:08.118Z,39.00
2022-08-29T12:51:41.480Z,40.70
2022-08-29T12:54:12.296Z,39.30
2022-08-29T12:56:48.297Z,39.30
2022-08-29T12:59:20.726Z,40.80
2022-08-29T13:01:54.425Z,40.30
2022-08-29T13:04:32.235Z,41.70
2022-08-29T13:07:06.407Z,40.30
2022-08-29T13:09:39.958Z,40.00
2022-08-29T13:12:13.046Z,39.80
2022-08-29T13:14:56.510Z,38.70
2022-08-29T13:17:28.488Z,39.40
2022-08-29T13:20:41.089Z,39.40
2022-08-29T13:23:22.590Z,40.10
2022-08-29T13:26:03.658Z,40.90
2022-08-29T13:28:43.069Z,39.20
2022-08-29T13:31:34.523Z,39.30
2022-08-29T13:34:21.116Z,38.50
2022-08-29T13:37:06.297Z,39.10
2022-08-29T13:39:45.890Z,38.80
2022-08-29T13:42:33.849Z,37.90
2022-08-29T13:45:13.200Z,38.10
2022-08-29T13:47:55.385Z,38.80
2022-08-29T13:50:25.242Z,38.70
2022-08-29T13:52:55.126Z,38.80
2022-08-29T13:55:25.394Z,38.90
2022-08-29T13:57:56.248Z,38.20
2022-08-29T14:00:32.117Z,39.10
2022-08-29T14:03:05.431Z,38.50
2022-08-29T14:05:35.252Z,38.90
2022-08-29T14:08:05.581Z,39.20
2022-08-29T14:10:35.428Z,39.60
2022-08-29T14:13:05.154Z,38.10
2022-08-29T14:15:34.039Z,38.40
2022-08-29T14:18:05.246Z,38.50
2022-08-29T14:20:33.943Z,39.40
2022-08-29T14:23:02.142Z,40.00
2022-08-29T14:25:30.474Z,39.90
2022-08-29T14:28:00.233Z,39.90
2022-08-29T14:30:28.598Z,38.60
2022-08-29T14:32:56.782Z,40.00
2022-08-29T14:35:27.480Z,39.00
2022-08-29T14:38:00.896Z,38.50
2022-08-29T14:40:29.551Z,38.60
2022-08-29T14:42:59.905Z,39.20
2022-08-29T14:45:29.321Z,40.10
2022-08-29T14:47:58.428Z,39.00
2022-08-29T14:50:26.901Z,39.20
2022-08-29T14:52:55.308Z,38.70
2022-08-29T14:55:23.681Z,39.10
2022-08-29T14:57:52.205Z,38.30
2022-08-29T15:00:24.529Z,38.60
2022-08-29T15:02:53.374Z,39.40
2022-08-29T15:05:22.411Z,39.70
2022-08-29T15:07:51.117Z,39.80
2022-08-29T15:10:23.241Z,38.70
2022-08-29T15:12:51.953Z,39.60
2022-08-29T15:15:29.165Z,39.60
2022-08-29T15:17:58.136Z,39.80
2022-08-29T15:20:36.669Z,39.00
2022-08-29T15:23:06.678Z,40.10
2022-08-29T15:25:35.270Z,40.60
2022-08-29T15:28:05.611Z,40.90
2022-08-29T15:30:35.508Z,40.00
2022-08-29T15:33:04.666Z,40.60
2022-08-29T15:35:33.054Z,40.70
2022-08-29T15:38:01.347Z,40.50
2022-08-29T15:40:29.675Z,41.50
2022-08-29T15:42:57.954Z,40.70
2022-08-29T15:45:26.233Z,40.70
2022-08-29T15:47:56.215Z,39.80
2022-08-29T15:50:26.333Z,41.20
2022-08-29T15:52:55.637Z,40.80
2022-08-29T15:55:24.528Z,40.80
2022-08-29T15:57:53.161Z,40.70
2022-08-29T16:00:30.358Z,40.30
2022-08-29T16:03:10.747Z,40.80
2022-08-29T16:05:40.255Z,40.30
2022-08-29T16:08:10.758Z,40.00
2022-08-29T16:10:42.937Z,41.30
2022-08-29T16:13:11.688Z,41.40
2022-08-29T16:15:39.915Z,41.70
2022-08-29T16:18:09.587Z,40.90
2022-08-29T16:20:41.378Z,41.70
2022-08-29T16:23:10.356Z,41.60
2022-08-29T16:25:39.614Z,42.30
2022-08-29T16:28:08.053Z,41.90
2022-08-29T16:30:37.986Z,41.80
2022-08-29T16:33:14.191Z,41.60
2022-08-29T16:35:55.563Z,40.90
2022-08-29T16:38:23.747Z,40.10
2022-08-29T16:40:51.890Z,40.50
2022-08-29T16:43:20.079Z,40.00
2022-08-29T16:45:48.600Z,40.10
2022-08-29T16:48:18.281Z,40.00
2022-08-29T16:50:47.118Z,40.70
2022-08-29T16:53:15.363Z,41.20
2022-08-29T16:55:43.565Z,41.60
2022-08-29T16:58:29.378Z,41.30
2022-08-29T17:00:57.728Z,41.30
2022-08-29T17:03:27.803Z,42.00
2022-08-29T17:05:56.030Z,42.00
2022-08-29T17:08:23.497Z,42.30
2022-08-29T17:10:50.842Z,42.60
2022-08-29T17:13:18.205Z,42.00
2022-08-29T17:15:45.284Z,48.30
2022-08-29T17:18:13.490Z,55.70
2022-08-29T17:20:46.227Z,53.50
2022-08-29T17:23:15.768Z,50.10
2022-08-29T17:25:44.107Z,49.50
2022-08-29T17:28:19.430Z,51.00
2022-08-29T17:30:48.791Z,50.70
2022-08-29T17:33:17.610Z,51.90
2022-08-29T17:35:48.292Z,51.40
2022-08-29T17:38:17.307Z,51.10
2022-08-29T17:40:47.421Z,50.50
2022-08-29T17:43:18.387Z,51.10
2022-08-29T17:45:47.148Z,52.70
2022-08-29T17:48:15.648Z,53.50
2022-08-29T17:50:44.492Z,54.50
2022-08-29T17:53:14.898Z,54.40
2022-08-29T17:55:43.437Z,56.60
2022-08-29T17:58:12.286Z,54.90
2022-08-29T18:00:41.614Z,55.20
2022-08-29T18:03:10.009Z,55.20
2022-08-29T18:05:38.336Z,56.60
2022-08-29T18:08:07.288Z,54.30
2022-08-29T18:10:38.549Z,57.70
2022-08-29T18:13:07.000Z,58.10
2022-08-29T18:15:36.317Z,55.50
2022-08-29T18:18:05.729Z,55.60
2022-08-29T18:20:33.992Z,57.10
2022-08-29T18:23:02.451Z,54.80
2022-08-29T18:25:30.753Z,54.50
2022-08-29T18:28:00.734Z,56.40
2022-08-29T18:30:29.465Z,57.00
2022-08-29T18:32:58.396Z,55.00
2022-08-29T18:35:26.613Z,54.20
2022-08-29T18:37:54.999Z,54.80
2022-08-29T18:40:23.788Z,56.80
2022-08-29T18:42:53.281Z,56.20
2022-08-29T18:45:24.210Z,56.80
2022-08-29T18:47:52.510Z,59.10
2022-08-29T18:50:36.520Z,57.20
2022-08-29T18:53:10.732Z,56.60
2022-08-29T18:55:39.980Z,59.00
2022-08-29T18:58:09.182Z,59.00
2022-08-29T19:00:39.662Z,59.30
2022-08-29T19:03:08.184Z,60.10
2022-08-29T19:05:38.579Z,58.80
2022-08-29T19:08:08.691Z,58.50
2022-08-29T19:10:37.088Z,59.60
2022-08-29T19:13:08.092Z,59.50
2022-08-29T19:15:41.501Z,57.70
2022-08-29T19:18:11.194Z,58.90
2022-08-29T19:20:56.734Z,60.30
2022-08-29T19:23:25.001Z,59.80
2022-08-29T19:25:54.506Z,61.60
2022-08-29T19:28:23.774Z,60.70
2022-08-29T19:30:53.989Z,60.70
2022-08-29T19:33:22.446Z,62.30
2022-08-29T19:35:53.600Z,61.60
2022-08-29T19:38:23.816Z,60.90
2022-08-29T19:40:56.339Z,60.40
2022-08-29T19:43:27.298Z,60.50
2022-08-29T19:45:59.101Z,61.30
2022-08-29T19:48:28.221Z,59.80
2022-08-29T19:50:56.930Z,61.70
2022-08-29T19:53:26.213Z,61.90
2022-08-29T19:55:56.233Z,61.20
2022-08-29T19:58:31.483Z,61.90
2022-08-29T20:01:02.654Z,62.40
2022-08-29T20:03:32.217Z,61.90
2022-08-29T20:06:06.157Z,63.20
2022-08-29T20:08:38.277Z,63.60
2022-08-29T20:11:13.929Z,64.20
2022-08-29T20:13:50.131Z,63.40
2022-08-29T20:16:24.784Z,63.60
2022-08-29T20:18:54.092Z,63.80
2022-08-29T20:21:24.338Z,64.30
2022-08-29T20:23:57.237Z,64.00
2022-08-29T20:26:28.989Z,62.90
2022-08-29T20:28:58.316Z,61.70
2022-08-29T20:31:29.060Z,62.20
2022-08-29T20:33:57.481Z,63.20
2022-08-29T20:36:44.473Z,63.30
2022-08-29T20:39:18.547Z,63.10
2022-08-29T20:41:51.006Z,63.70
2022-08-29T20:44:20.358Z,64.20
2022-08-29T20:46:51.379Z,63.30
2022-08-29T20:49:22.809Z,61.90
2022-08-29T20:51:52.379Z,62.70
2022-08-29T20:54:24.392Z,63.80
2022-08-29T20:56:53.586Z,63.60
2022-08-29T20:59:24.697Z,63.40
2022-08-29T21:01:56.589Z,63.70
2022-08-29T21:04:42.898Z,65.00
2022-08-29T21:07:14.279Z,63.60
2022-08-29T21:09:45.395Z,62.80
2022-08-29T21:12:15.600Z,63.70
2022-08-29T21:14:44.402Z,63.10
2022-08-29T21:17:15.116Z,63.40
2022-08-29T21:19:44.111Z,62.40
2022-08-29T21:22:15.131Z,62.70
2022-08-29T21:24:43.298Z,63.10
2022-08-29T21:27:11.573Z,62.30
2022-08-29T21:29:41.093Z,61.60
2022-08-29T21:32:09.311Z,61.60
2022-08-29T21:34:38.919Z,62.90
2022-08-29T21:37:07.279Z,63.70
2022-08-29T21:39:36.211Z,64.20
2022-08-29T21:42:04.829Z,63.90
2022-08-29T21:44:33.086Z,64.50
2022-08-29T21:47:01.981Z,64.80
2022-08-29T21:49:31.387Z,64.80
2022-08-29T21:52:01.533Z,65.10
2022-08-29T21:54:29.865Z,64.20
2022-08-29T21:56:58.214Z,64.60
2022-08-29T21:59:27.813Z,63.90
2022-08-29T22:01:56.708Z,64.80
2022-08-29T22:04:28.703Z,65.50
2022-08-29T22:06:58.437Z,64.90
2022-08-29T22:09:29.861Z,66.40
2022-08-29T22:11:58.180Z,65.70
2022-08-29T22:14:47.724Z,65.40
2022-08-29T22:17:16.344Z,63.70
2022-08-29T22:19:44.614Z,64.50
2022-08-29T22:22:12.981Z,64.20
2022-08-29T22:24:42.605Z,65.60
2022-08-29T22:27:10.876Z,65.00
2022-08-29T22:29:39.092Z,66.10
2022-08-29T22:32:07.629Z,65.60
2022-08-29T22:34:35.866Z,64.70
2022-08-29T22:37:04.258Z,64.10
2022-08-29T22:39:32.681Z,64.20
2022-08-29T22:42:02.603Z,65.10
2022-08-29T22:47:20.193Z,65.60
2022-08-29T22:49:48.447Z,65.40
2022-08-29T22:52:16.638Z,64.70
2022-08-29T22:54:45.079Z,64.90
2022-08-29T22:57:19.370Z,64.40
2022-08-29T22:59:49.191Z,64.10
2022-08-29T23:02:19.607Z,64.30
2022-08-29T23:04:49.089Z,64.20
2022-08-29T23:07:17.905Z,65.10
2022-08-29T23:09:46.564Z,64.50
2022-08-29T23:12:17.594Z,64.70
2022-08-29T23:14:47.273Z,64.50
2022-08-29T23:17:16.967Z,64.90
2022-08-29T23:19:45.994Z,64.90
2022-08-29T23:22:15.589Z,64.90
2022-08-29T23:24:58.201Z,65.10
2022-08-29T23:27:29.082Z,65.20
2022-08-29T23:29:58.134Z,65.20
2022-08-29T23:32:26.633Z,65.70
2022-08-29T23:34:55.627Z,65.60
2022-08-29T23:37:23.930Z,66.20
2022-08-29T23:39:52.124Z,66.30
2022-08-29T23:42:20.330Z,66.20
2022-08-29T23:44:50.115Z,66.90
2022-08-29T23:47:18.702Z,67.00
2022-08-29T23:49:47.166Z,67.20
2022-08-29T23:52:15.682Z,67.10
2022-08-29T23:54:44.139Z,67.20
2022-08-29T23:57:12.360Z,67.40
2022-08-29T23:59:57.932Z,67.80
